createdAt,value
2019-01-16T19:30:13.865Z,4.68
2019-01-16T19:31:15.161Z,4.73
2019-01-16T19:32:15.163Z,4.66
2019-01-16T19:33:21.127Z,4.67
2019-01-16T19:34:22.831Z,4.70
2019-01-16T19:35:21.005Z,4.68
2019-01-16T19:36:13.470Z,4.73
2019-01-16T19:37:21.100Z,4.67
2019-01-16T19:38:21.160Z,4.73
2019-01-16T19:39:22.241Z,4.73
2019-01-16T19:40:22.601Z,4.66
2019-01-16T19:41:16.154Z,4.68
2019-01-16T19:42:15.069Z,4.67
2019-01-16T19:44:29.530Z,4.73
2019-01-16T19:45:29.653Z,4.74
2019-01-16T19:46:31.208Z,4.73
2019-01-16T19:47:31.210Z,4.68
2019-01-16T19:48:37.178Z,4.73
2019-01-16T19:49:31.377Z,4.67
2019-01-16T19:50:32.345Z,4.63
2019-01-16T19:51:31.236Z,4.67
2019-01-16T19:52:31.254Z,4.75
2019-01-16T19:53:29.440Z,4.74
2019-01-16T19:54:38.507Z,4.68
2019-01-16T19:55:31.687Z,4.67
2019-01-16T19:57:40.893Z,4.80
2019-01-16T19:58:48.227Z,4.67
2019-01-16T19:59:42.397Z,4.82
2019-01-16T20:00:42.395Z,4.82
2019-01-16T20:01:40.671Z,4.77
2019-01-16T20:02:42.387Z,4.77
2019-01-16T20:03:42.403Z,4.82
2019-01-16T20:04:42.364Z,4.75
2019-01-16T20:05:42.361Z,4.78
2019-01-16T20:06:42.380Z,4.77
2019-01-16T20:07:42.387Z,4.71
2019-01-16T20:08:42.664Z,4.86
2019-01-16T20:09:42.361Z,4.73
2019-01-16T20:10:42.362Z,4.80
2019-01-16T20:11:42.376Z,4.84
2019-01-16T20:12:42.371Z,4.86
2019-01-16T20:13:42.371Z,4.89
2019-01-16T20:14:42.372Z,4.86
2019-01-16T20:15:42.466Z,4.78
2019-01-16T20:16:42.410Z,4.80
2019-01-16T20:17:42.665Z,4.82
2019-01-16T20:19:52.204Z,4.84
2019-01-16T20:22:01.625Z,4.78
2019-01-16T20:24:11.936Z,4.86
2019-01-16T20:26:23.255Z,4.80
2019-01-16T20:28:33.562Z,4.89
2019-01-16T20:30:59.336Z,4.89
2019-01-16T20:33:10.087Z,4.84
2019-01-16T20:35:36.138Z,4.80
2019-01-16T20:37:46.410Z,4.86
2019-01-16T20:40:09.005Z,4.86
2019-01-16T20:42:19.120Z,4.84
2019-01-16T20:44:28.422Z,4.86
2019-01-16T20:46:39.401Z,4.80
2019-01-16T20:50:46.195Z,4.90
2019-01-16T20:52:58.068Z,4.89
2019-01-16T20:55:09.209Z,4.89
2019-01-16T20:56:10.621Z,4.82
2019-01-16T20:57:10.938Z,4.86
2019-01-16T20:58:10.630Z,4.89
2019-01-16T20:59:10.176Z,4.87
2019-01-16T21:00:12.330Z,4.89
2019-01-16T21:01:12.549Z,4.94
2019-01-16T21:02:10.863Z,5.00
2019-01-16T21:04:25.674Z,4.89
2019-01-16T21:06:35.431Z,4.92
2019-01-16T21:07:37.099Z,4.86
2019-01-16T21:08:37.316Z,4.92
2019-01-16T21:09:37.445Z,4.82
2019-01-16T21:12:05.906Z,4.92
2019-01-16T21:14:06.681Z,4.82
2019-01-16T21:15:08.436Z,4.90
2019-01-16T21:16:08.428Z,4.86
2019-01-16T21:17:14.174Z,4.89
2019-01-16T21:18:08.862Z,4.89
2019-01-16T21:20:17.001Z,4.86
2019-01-16T21:22:42.522Z,4.93
2019-01-16T21:23:39.826Z,4.94
2019-01-16T21:24:38.828Z,4.94
2019-01-16T21:25:38.806Z,5.02
2019-01-16T21:26:38.838Z,4.97
2019-01-16T21:27:38.921Z,4.93
2019-01-16T21:28:38.809Z,4.93
2019-01-16T21:29:40.018Z,5.00
2019-01-16T21:30:38.848Z,4.90
2019-01-16T21:31:38.819Z,4.90
2019-01-16T21:33:58.332Z,4.93
2019-01-16T21:35:00.010Z,4.92
2019-01-16T21:35:59.981Z,4.92
2019-01-16T21:36:58.219Z,4.84
2019-01-16T21:38:00.060Z,4.87
2019-01-16T21:38:58.127Z,4.84
2019-01-16T21:39:58.196Z,4.90
2019-01-16T21:42:14.263Z,4.89
2019-01-16T21:43:16.042Z,4.86
2019-01-16T21:44:15.985Z,4.94
2019-01-16T21:45:15.819Z,4.90
2019-01-16T21:48:33.899Z,4.89
2019-01-16T21:49:22.067Z,4.87
2019-01-16T21:50:12.600Z,4.89
2019-01-16T21:51:08.450Z,4.86
2019-01-16T21:52:14.650Z,4.94
2019-01-16T21:53:08.919Z,4.92
2019-01-16T21:54:16.090Z,4.89
2019-01-16T21:56:17.429Z,4.87
2019-01-16T21:57:18.989Z,4.97
2019-01-16T21:58:18.928Z,4.90
2019-01-16T21:59:18.894Z,4.86
2019-01-16T22:00:19.949Z,4.80
2019-01-16T22:01:18.963Z,4.84
2019-01-16T22:02:18.933Z,4.84
2019-01-16T22:03:19.908Z,4.86
2019-01-16T22:04:18.879Z,4.80
2019-01-16T22:05:18.879Z,4.75
2019-01-16T22:06:19.020Z,4.67
2019-01-16T22:07:19.208Z,4.66
2019-01-16T22:08:18.889Z,4.67
2019-01-16T22:09:18.882Z,4.62
2019-01-16T22:10:17.883Z,4.59
2019-01-16T22:11:19.012Z,4.66
2019-01-16T22:12:19.103Z,4.63
2019-01-16T22:13:18.918Z,4.60
2019-01-16T22:14:25.649Z,4.53
2019-01-16T22:16:27.378Z,4.53
2019-01-16T22:18:36.600Z,4.53
2019-01-16T22:20:57.740Z,4.50
2019-01-16T22:21:59.392Z,4.49
2019-01-16T22:22:58.189Z,4.45
2019-01-16T22:23:59.401Z,4.44
2019-01-16T22:24:59.505Z,4.44
2019-01-16T22:26:05.297Z,4.52
2019-01-16T22:27:48.502Z,4.49
2019-01-16T22:29:58.778Z,4.41
2019-01-16T22:31:00.424Z,4.40
2019-01-16T22:32:00.724Z,4.35
2019-01-16T22:33:00.326Z,4.40
2019-01-16T22:34:00.754Z,4.35
2019-01-16T22:35:00.351Z,4.41
2019-01-16T22:36:00.369Z,4.35
2019-01-16T22:37:00.317Z,4.38
2019-01-16T22:38:00.323Z,4.35
2019-01-16T22:39:00.336Z,4.38
2019-01-16T22:40:01.594Z,4.40
2019-01-16T22:41:06.726Z,4.28
2019-01-16T22:43:09.218Z,4.42
2019-01-16T22:44:58.546Z,4.40
2019-01-16T22:45:58.514Z,4.34
2019-01-16T22:47:00.277Z,4.38
2019-01-16T22:48:07.400Z,4.34
2019-01-16T22:49:06.160Z,4.34
2019-01-16T22:50:07.610Z,4.20
2019-01-16T22:51:06.197Z,4.30
2019-01-16T22:52:08.000Z,4.26
2019-01-16T22:53:06.138Z,4.31
2019-01-16T22:54:06.045Z,4.30
2019-01-16T22:55:00.221Z,4.24
2019-01-16T22:56:00.062Z,4.20
2019-01-16T22:57:08.154Z,4.20
2019-01-16T22:58:00.118Z,4.32
2019-01-16T22:59:00.064Z,4.26
2019-01-16T23:00:00.084Z,4.26
2019-01-16T23:01:00.078Z,4.19
2019-01-16T23:02:00.044Z,4.20
2019-01-16T23:03:00.018Z,4.13
2019-01-16T23:04:00.016Z,4.20
2019-01-16T23:05:00.010Z,4.12
2019-01-16T23:06:00.012Z,4.19
2019-01-16T23:07:00.026Z,4.23
2019-01-16T23:08:00.006Z,4.22
2019-01-16T23:09:00.026Z,4.16
2019-01-16T23:09:59.999Z,4.24
2019-01-16T23:11:00.003Z,4.23
2019-01-16T23:12:00.018Z,4.16
2019-01-16T23:13:00.096Z,4.16
2019-01-16T23:14:00.017Z,4.20
2019-01-16T23:14:58.231Z,4.17
2019-01-16T23:16:05.878Z,4.19
2019-01-16T23:17:00.098Z,4.16
2019-01-16T23:18:00.089Z,4.22
2019-01-16T23:19:00.047Z,4.14
2019-01-16T23:20:00.130Z,4.17
2019-01-16T23:21:05.893Z,4.19
2019-01-16T23:22:00.181Z,4.19
2019-01-16T23:23:00.144Z,4.14
2019-01-16T23:25:08.575Z,4.08
2019-01-16T23:26:10.185Z,4.12
2019-01-16T23:27:17.194Z,4.12
2019-01-16T23:28:17.075Z,4.24
2019-01-16T23:29:10.251Z,4.13
2019-01-16T23:30:10.353Z,4.22
2019-01-16T23:31:10.116Z,4.13
2019-01-16T23:32:17.464Z,4.17
2019-01-16T23:33:10.348Z,4.14
2019-01-16T23:34:10.306Z,4.12
2019-01-16T23:35:10.165Z,4.19
2019-01-16T23:36:10.176Z,4.22
2019-01-16T23:37:10.169Z,4.16
2019-01-16T23:38:09.285Z,4.19
2019-01-16T23:39:10.151Z,4.14
2019-01-16T23:40:15.953Z,4.13
2019-01-16T23:41:09.758Z,4.20
2019-01-16T23:42:09.782Z,4.04
2019-01-16T23:43:09.756Z,4.04
2019-01-16T23:44:15.852Z,4.13
2019-01-16T23:45:09.874Z,4.08
2019-01-16T23:46:11.799Z,4.13
2019-01-16T23:47:09.901Z,4.10
2019-01-16T23:48:09.713Z,4.13
2019-01-16T23:49:09.731Z,4.05
2019-01-16T23:50:09.752Z,4.05
2019-01-16T23:51:09.724Z,4.06
2019-01-16T23:52:09.757Z,3.99
2019-01-16T23:53:09.731Z,4.06
2019-01-16T23:54:09.729Z,4.06
2019-01-16T23:55:09.710Z,4.01
2019-01-16T23:56:15.732Z,3.98
2019-01-16T23:57:09.821Z,4.04
2019-01-16T23:58:09.815Z,3.94
2019-01-16T23:59:09.803Z,4.10
